sensor_id;sensor_type;location;lat;lon;timestamp;P1;durP1;ratioP1;P2;durP2;ratioP2
4636;SDS011;2331;48.806;9.140;2023-06-19T00:00:47;10.87;;;6.97;;
4636;SDS011;2331;48.806;9.140;2023-06-19T00:03:13;8.57;;;6.23;;
4636;SDS011;2331;48.806;9.140;2023-06-19T00:05:41;8.73;;;6.40;;
4636;SDS011;2331;48.806;9.140;2023-06-19T00:08:08;8.13;;;6.23;;
4636;SDS011;2331;48.806;9.140;2023-06-19T00:10:35;10.93;;;6.53;;
4636;SDS011;2331;48.806;9.140;2023-06-19T00:13:05;9.20;;;6.70;;
4636;SDS011;2331;48.806;9.140;2023-06-19T00:15:32;11.17;;;6.30;;
4636;SDS011;2331;48.806;9.140;2023-06-19T00:17:59;8.93;;;6.40;;
4636;SDS011;2331;48.806;9.140;2023-06-19T00:20:25;10.80;;;6.83;;
4636;SDS011;2331;48.806;9.140;2023-06-19T00:22:53;8.80;;;6.67;;
4636;SDS011;2331;48.806;9.140;2023-06-19T00:25:20;10.27;;;6.43;;
4636;SDS011;2331;48.806;9.140;2023-06-19T00:27:47;8.17;;;6.33;;
4636;SDS011;2331;48.806;9.140;2023-06-19T00:30:14;7.50;;;5.80;;
4636;SDS011;2331;48.806;9.140;2023-06-19T00:32:41;9.27;;;5.43;;
4636;SDS011;2331;48.806;9.140;2023-06-19T00:35:15;7.67;;;6.00;;
4636;SDS011;2331;48.806;9.140;2023-06-19T00:37:43;8.93;;;5.90;;
4636;SDS011;2331;48.806;9.140;2023-06-19T00:40:14;10.30;;;5.90;;
4636;SDS011;2331;48.806;9.140;2023-06-19T00:42:47;8.40;;;6.30;;
4636;SDS011;2331;48.806;9.140;2023-06-19T00:45:14;8.83;;;6.07;;
4636;SDS011;2331;48.806;9.140;2023-06-19T00:47:40;7.87;;;5.90;;
4636;SDS011;2331;48.806;9.140;2023-06-19T00:50:07;8.33;;;6.03;;
4636;SDS011;2331;48.806;9.140;2023-06-19T00:52:35;9.17;;;6.20;;
4636;SDS011;2331;48.806;9.140;2023-06-19T00:55:03;8.93;;;6.07;;
4636;SDS011;2331;48.806;9.140;2023-06-19T00:57:32;14.43;;;6.10;;
4636;SDS011;2331;48.806;9.140;2023-06-19T00:59:59;7.97;;;5.47;;
4636;SDS011;2331;48.806;9.140;2023-06-19T01:02:29;9.20;;;6.50;;
4636;SDS011;2331;48.806;9.140;2023-06-19T01:04:56;8.93;;;5.57;;
4636;SDS011;2331;48.806;9.140;2023-06-19T01:07:26;9.43;;;6.00;;
4636;SDS011;2331;48.806;9.140;2023-06-19T01:09:57;8.10;;;6.00;;
4636;SDS011;2331;48.806;9.140;2023-06-19T01:12:30;8.70;;;6.10;;
4636;SDS011;2331;48.806;9.140;2023-06-19T01:15:03;9.60;;;6.20;;
4636;SDS011;2331;48.806;9.140;2023-06-19T01:17:31;8.70;;;5.17;;
4636;SDS011;2331;48.806;9.140;2023-06-19T01:19:58;9.50;;;5.93;;
4636;SDS011;2331;48.806;9.140;2023-06-19T01:22:33;7.70;;;5.17;;
4636;SDS011;2331;48.806;9.140;2023-06-19T01:24:59;6.83;;;5.10;;
4636;SDS011;2331;48.806;9.140;2023-06-19T01:27:26;9.50;;;5.60;;
4636;SDS011;2331;48.806;9.140;2023-06-19T01:29:55;9.03;;;5.70;;
4636;SDS011;2331;48.806;9.140;2023-06-19T01:32:25;13.13;;;5.57;;
4636;SDS011;2331;48.806;9.140;2023-06-19T01:34:56;7.47;;;5.20;;
4636;SDS011;2331;48.806;9.140;2023-06-19T01:37:25;6.57;;;5.23;;
4636;SDS011;2331;48.806;9.140;2023-06-19T01:39:54;8.33;;;5.57;;
4636;SDS011;2331;48.806;9.140;2023-06-19T01:42:23;11.60;;;5.27;;
4636;SDS011;2331;48.806;9.140;2023-06-19T01:44:50;6.93;;;5.10;;
4636;SDS011;2331;48.806;9.140;2023-06-19T01:47:17;6.73;;;5.00;;
4636;SDS011;2331;48.806;9.140;2023-06-19T01:49:45;8.17;;;5.10;;
4636;SDS011;2331;48.806;9.140;2023-06-19T01:52:12;8.43;;;4.90;;
4636;SDS011;2331;48.806;9.140;2023-06-19T01:54:39;8.90;;;5.27;;
4636;SDS011;2331;48.806;9.140;2023-06-19T01:57:08;8.10;;;4.70;;
4636;SDS011;2331;48.806;9.140;2023-06-19T01:59:36;10.40;;;4.87;;
4636;SDS011;2331;48.806;9.140;2023-06-19T02:02:02;10.73;;;4.83;;
4636;SDS011;2331;48.806;9.140;2023-06-19T02:04:31;8.30;;;4.40;;
4636;SDS011;2331;48.806;9.140;2023-06-19T02:06:58;7.70;;;4.33;;
4636;SDS011;2331;48.806;9.140;2023-06-19T02:09:25;7.97;;;4.67;;
4636;SDS011;2331;48.806;9.140;2023-06-19T02:11:52;5.37;;;3.80;;
4636;SDS011;2331;48.806;9.140;2023-06-19T02:14:21;6.43;;;4.70;;
4636;SDS011;2331;48.806;9.140;2023-06-19T02:16:48;5.63;;;4.17;;
4636;SDS011;2331;48.806;9.140;2023-06-19T02:19:15;6.00;;;4.20;;
4636;SDS011;2331;48.806;9.140;2023-06-19T02:21:42;6.23;;;4.17;;
4636;SDS011;2331;48.806;9.140;2023-06-19T02:24:08;6.30;;;4.70;;
4636;SDS011;2331;48.806;9.140;2023-06-19T02:26:35;5.13;;;4.00;;
4636;SDS011;2331;48.806;9.140;2023-06-19T02:29:02;6.47;;;4.60;;
4636;SDS011;2331;48.806;9.140;2023-06-19T02:31:31;6.10;;;3.60;;
4636;SDS011;2331;48.806;9.140;2023-06-19T02:33:57;6.10;;;4.47;;
4636;SDS011;2331;48.806;9.140;2023-06-19T02:36:24;6.00;;;4.23;;
4636;SDS011;2331;48.806;9.140;2023-06-19T02:38:51;5.70;;;4.00;;
4636;SDS011;2331;48.806;9.140;2023-06-19T02:41:18;6.27;;;4.27;;
4636;SDS011;2331;48.806;9.140;2023-06-19T02:43:45;6.27;;;4.10;;
4636;SDS011;2331;48.806;9.140;2023-06-19T02:46:12;7.00;;;4.33;;
4636;SDS011;2331;48.806;9.140;2023-06-19T02:48:40;6.50;;;3.90;;
4636;SDS011;2331;48.806;9.140;2023-06-19T02:51:07;5.23;;;3.77;;
4636;SDS011;2331;48.806;9.140;2023-06-19T02:53:34;5.00;;;3.87;;
4636;SDS011;2331;48.806;9.140;2023-06-19T02:56:01;7.43;;;4.10;;
4636;SDS011;2331;48.806;9.140;2023-06-19T02:58:29;8.10;;;4.10;;
4636;SDS011;2331;48.806;9.140;2023-06-19T03:00:56;4.33;;;3.13;;
4636;SDS011;2331;48.806;9.140;2023-06-19T03:03:23;4.60;;;3.30;;
4636;SDS011;2331;48.806;9.140;2023-06-19T03:05:52;5.73;;;3.60;;
4636;SDS011;2331;48.806;9.140;2023-06-19T03:08:18;5.70;;;3.30;;
4636;SDS011;2331;48.806;9.140;2023-06-19T03:10:45;5.80;;;3.63;;
4636;SDS011;2331;48.806;9.140;2023-06-19T03:13:13;4.33;;;3.23;;
4636;SDS011;2331;48.806;9.140;2023-06-19T03:15:39;6.53;;;3.87;;
4636;SDS011;2331;48.806;9.140;2023-06-19T03:18:06;8.23;;;3.73;;
4636;SDS011;2331;48.806;9.140;2023-06-19T03:20:35;5.33;;;3.33;;
4636;SDS011;2331;48.806;9.140;2023-06-19T03:23:04;5.00;;;3.60;;
4636;SDS011;2331;48.806;9.140;2023-06-19T03:25:30;4.43;;;3.20;;
4636;SDS011;2331;48.806;9.140;2023-06-19T03:27:59;4.67;;;3.40;;
4636;SDS011;2331;48.806;9.140;2023-06-19T03:30:27;5.00;;;3.00;;
4636;SDS011;2331;48.806;9.140;2023-06-19T03:32:54;4.87;;;3.03;;
4636;SDS011;2331;48.806;9.140;2023-06-19T03:35:21;5.70;;;3.10;;
4636;SDS011;2331;48.806;9.140;2023-06-19T03:37:47;7.93;;;3.03;;
4636;SDS011;2331;48.806;9.140;2023-06-19T03:40:16;4.73;;;2.60;;
4636;SDS011;2331;48.806;9.140;2023-06-19T03:42:43;5.70;;;3.00;;
4636;SDS011;2331;48.806;9.140;2023-06-19T03:45:10;5.37;;;2.67;;
4636;SDS011;2331;48.806;9.140;2023-06-19T03:47:37;4.67;;;2.90;;
4636;SDS011;2331;48.806;9.140;2023-06-19T03:50:05;3.60;;;2.23;;
4636;SDS011;2331;48.806;9.140;2023-06-19T03:52:34;5.37;;;2.90;;
4636;SDS011;2331;48.806;9.140;2023-06-19T03:55:01;4.27;;;2.87;;
4636;SDS011;2331;48.806;9.140;2023-06-19T03:57:30;4.03;;;2.60;;
4636;SDS011;2331;48.806;9.140;2023-06-19T03:59:57;4.30;;;2.40;;
4636;SDS011;2331;48.806;9.140;2023-06-19T04:02:24;4.17;;;2.70;;
4636;SDS011;2331;48.806;9.140;2023-06-19T04:04:51;5.27;;;2.93;;
4636;SDS011;2331;48.806;9.140;2023-06-19T04:07:18;4.70;;;2.63;;
4636;SDS011;2331;48.806;9.140;2023-06-19T04:09:45;6.13;;;2.90;;
4636;SDS011;2331;48.806;9.140;2023-06-19T04:12:12;4.20;;;2.80;;
4636;SDS011;2331;48.806;9.140;2023-06-19T04:14:41;4.43;;;2.70;;
4636;SDS011;2331;48.806;9.140;2023-06-19T04:17:08;4.90;;;3.00;;
4636;SDS011;2331;48.806;9.140;2023-06-19T04:19:34;5.53;;;3.00;;
4636;SDS011;2331;48.806;9.140;2023-06-19T04:22:01;3.87;;;2.50;;
4636;SDS011;2331;48.806;9.140;2023-06-19T04:24:28;6.40;;;3.07;;
4636;SDS011;2331;48.806;9.140;2023-06-19T04:26:54;4.97;;;3.10;;
4636;SDS011;2331;48.806;9.140;2023-06-19T04:29:21;4.40;;;2.90;;
4636;SDS011;2331;48.806;9.140;2023-06-19T04:31:49;3.93;;;2.60;;
4636;SDS011;2331;48.806;9.140;2023-06-19T04:34:17;5.07;;;2.70;;
4636;SDS011;2331;48.806;9.140;2023-06-19T04:36:46;5.23;;;2.63;;
4636;SDS011;2331;48.806;9.140;2023-06-19T04:39:12;4.57;;;2.67;;
4636;SDS011;2331;48.806;9.140;2023-06-19T04:41:40;7.90;;;2.63;;
4636;SDS011;2331;48.806;9.140;2023-06-19T04:44:08;5.40;;;3.30;;
4636;SDS011;2331;48.806;9.140;2023-06-19T04:46:36;4.03;;;2.73;;
4636;SDS011;2331;48.806;9.140;2023-06-19T04:49:05;3.83;;;2.47;;
4636;SDS011;2331;48.806;9.140;2023-06-19T04:51:32;4.97;;;3.03;;
4636;SDS011;2331;48.806;9.140;2023-06-19T04:53:59;5.27;;;3.03;;
4636;SDS011;2331;48.806;9.140;2023-06-19T04:56:26;4.30;;;2.73;;
4636;SDS011;2331;48.806;9.140;2023-06-19T04:58:53;4.73;;;3.20;;
4636;SDS011;2331;48.806;9.140;2023-06-19T05:01:21;4.13;;;2.70;;
4636;SDS011;2331;48.806;9.140;2023-06-19T05:03:53;5.07;;;3.20;;
4636;SDS011;2331;48.806;9.140;2023-06-19T05:06:22;4.40;;;3.00;;
4636;SDS011;2331;48.806;9.140;2023-06-19T05:08:48;4.50;;;3.20;;
4636;SDS011;2331;48.806;9.140;2023-06-19T05:11:15;5.13;;;3.17;;
4636;SDS011;2331;48.806;9.140;2023-06-19T05:13:42;5.80;;;3.10;;
4636;SDS011;2331;48.806;9.140;2023-06-19T05:16:09;5.40;;;2.93;;
4636;SDS011;2331;48.806;9.140;2023-06-19T05:18:36;5.93;;;3.10;;
4636;SDS011;2331;48.806;9.140;2023-06-19T05:21:03;5.30;;;3.00;;
4636;SDS011;2331;48.806;9.140;2023-06-19T05:23:31;4.33;;;2.93;;
4636;SDS011;2331;48.806;9.140;2023-06-19T05:25:58;3.77;;;2.60;;
4636;SDS011;2331;48.806;9.140;2023-06-19T05:28:25;4.60;;;3.10;;
4636;SDS011;2331;48.806;9.140;2023-06-19T05:30:52;4.87;;;3.00;;
4636;SDS011;2331;48.806;9.140;2023-06-19T05:33:18;4.53;;;3.10;;
4636;SDS011;2331;48.806;9.140;2023-06-19T05:35:45;3.50;;;2.30;;
4636;SDS011;2331;48.806;9.140;2023-06-19T05:38:17;4.80;;;2.70;;
4636;SDS011;2331;48.806;9.140;2023-06-19T05:40:45;4.83;;;2.53;;
4636;SDS011;2331;48.806;9.140;2023-06-19T05:43:12;3.67;;;2.47;;
4636;SDS011;2331;48.806;9.140;2023-06-19T05:45:39;3.80;;;2.63;;
4636;SDS011;2331;48.806;9.140;2023-06-19T05:48:06;5.40;;;3.00;;
4636;SDS011;2331;48.806;9.140;2023-06-19T05:50:32;4.43;;;3.03;;
4636;SDS011;2331;48.806;9.140;2023-06-19T05:52:59;6.00;;;3.20;;
4636;SDS011;2331;48.806;9.140;2023-06-19T05:55:26;4.20;;;2.70;;
4636;SDS011;2331;48.806;9.140;2023-06-19T05:57:55;4.70;;;3.13;;
4636;SDS011;2331;48.806;9.140;2023-06-19T06:00:22;4.27;;;2.97;;
4636;SDS011;2331;48.806;9.140;2023-06-19T06:02:49;4.60;;;2.97;;
4636;SDS011;2331;48.806;9.140;2023-06-19T06:05:16;5.70;;;3.03;;
4636;SDS011;2331;48.806;9.140;2023-06-19T06:07:44;5.00;;;3.20;;
4636;SDS011;2331;48.806;9.140;2023-06-19T06:10:10;7.80;;;2.73;;
4636;SDS011;2331;48.806;9.140;2023-06-19T06:12:37;4.00;;;2.77;;
4636;SDS011;2331;48.806;9.140;2023-06-19T06:15:06;4.20;;;2.67;;
4636;SDS011;2331;48.806;9.140;2023-06-19T06:17:34;4.00;;;2.87;;
4636;SDS011;2331;48.806;9.140;2023-06-19T06:20:01;4.47;;;3.00;;
4636;SDS011;2331;48.806;9.140;2023-06-19T06:22:33;3.60;;;2.70;;
4636;SDS011;2331;48.806;9.140;2023-06-19T06:25:00;4.47;;;2.70;;
4636;SDS011;2331;48.806;9.140;2023-06-19T06:27:27;4.33;;;2.83;;
4636;SDS011;2331;48.806;9.140;2023-06-19T06:29:53;5.00;;;3.00;;
4636;SDS011;2331;48.806;9.140;2023-06-19T06:32:22;3.70;;;2.60;;
4636;SDS011;2331;48.806;9.140;2023-06-19T06:34:48;3.87;;;2.73;;
4636;SDS011;2331;48.806;9.140;2023-06-19T06:37:15;3.67;;;2.57;;
4636;SDS011;2331;48.806;9.140;2023-06-19T06:39:47;4.47;;;2.70;;
4636;SDS011;2331;48.806;9.140;2023-06-19T06:42:14;4.10;;;2.80;;
4636;SDS011;2331;48.806;9.140;2023-06-19T06:44:41;4.40;;;2.97;;
4636;SDS011;2331;48.806;9.140;2023-06-19T06:47:07;3.90;;;2.60;;
4636;SDS011;2331;48.806;9.140;2023-06-19T06:49:35;4.47;;;2.30;;
4636;SDS011;2331;48.806;9.140;2023-06-19T06:52:02;4.03;;;2.57;;
4636;SDS011;2331;48.806;9.140;2023-06-19T06:54:30;6.23;;;2.70;;
4636;SDS011;2331;48.806;9.140;2023-06-19T06:56:56;3.60;;;2.47;;
4636;SDS011;2331;48.806;9.140;2023-06-19T06:59:25;3.50;;;2.40;;
4636;SDS011;2331;48.806;9.140;2023-06-19T07:01:52;5.97;;;2.40;;
4636;SDS011;2331;48.806;9.140;2023-06-19T07:04:19;3.80;;;2.47;;
4636;SDS011;2331;48.806;9.140;2023-06-19T07:06:47;3.63;;;2.43;;
4636;SDS011;2331;48.806;9.140;2023-06-19T07:09:14;4.10;;;2.60;;
4636;SDS011;2331;48.806;9.140;2023-06-19T07:11:41;3.80;;;2.50;;
4636;SDS011;2331;48.806;9.140;2023-06-19T07:14:08;3.60;;;2.63;;
4636;SDS011;2331;48.806;9.140;2023-06-19T07:16:34;3.63;;;2.60;;
4636;SDS011;2331;48.806;9.140;2023-06-19T07:19:01;4.80;;;2.67;;
4636;SDS011;2331;48.806;9.140;2023-06-19T07:21:28;6.60;;;2.67;;
4636;SDS011;2331;48.806;9.140;2023-06-19T07:23:58;4.30;;;2.30;;
4636;SDS011;2331;48.806;9.140;2023-06-19T07:26:25;3.70;;;2.53;;
4636;SDS011;2331;48.806;9.140;2023-06-19T07:28:52;4.20;;;2.50;;
4636;SDS011;2331;48.806;9.140;2023-06-19T07:31:19;7.20;;;3.47;;
4636;SDS011;2331;48.806;9.140;2023-06-19T07:33:45;3.80;;;2.70;;
4636;SDS011;2331;48.806;9.140;2023-06-19T07:36:12;4.30;;;2.33;;
4636;SDS011;2331;48.806;9.140;2023-06-19T07:38:41;4.63;;;2.20;;
4636;SDS011;2331;48.806;9.140;2023-06-19T07:41:09;4.40;;;2.63;;
4636;SDS011;2331;48.806;9.140;2023-06-19T07:43:36;5.10;;;2.50;;
4636;SDS011;2331;48.806;9.140;2023-06-19T07:46:03;4.53;;;3.10;;
4636;SDS011;2331;48.806;9.140;2023-06-19T07:48:30;4.10;;;2.80;;
4636;SDS011;2331;48.806;9.140;2023-06-19T07:50:57;4.37;;;2.70;;
4636;SDS011;2331;48.806;9.140;2023-06-19T07:53:24;4.77;;;2.63;;
4636;SDS011;2331;48.806;9.140;2023-06-19T07:55:50;3.23;;;1.90;;
4636;SDS011;2331;48.806;9.140;2023-06-19T07:58:19;3.63;;;2.50;;
4636;SDS011;2331;48.806;9.140;2023-06-19T08:00:47;4.20;;;2.30;;
4636;SDS011;2331;48.806;9.140;2023-06-19T08:03:14;3.37;;;2.33;;
4636;SDS011;2331;48.806;9.140;2023-06-19T08:05:41;4.40;;;2.43;;
4636;SDS011;2331;48.806;9.140;2023-06-19T08:08:07;4.80;;;2.60;;
4636;SDS011;2331;48.806;9.140;2023-06-19T08:10:34;3.60;;;2.43;;
4636;SDS011;2331;48.806;9.140;2023-06-19T08:13:01;4.20;;;2.50;;
4636;SDS011;2331;48.806;9.140;2023-06-19T08:15:29;3.07;;;2.33;;
4636;SDS011;2331;48.806;9.140;2023-06-19T08:17:56;4.23;;;2.43;;
4636;SDS011;2331;48.806;9.140;2023-06-19T08:20:23;3.80;;;2.63;;
4636;SDS011;2331;48.806;9.140;2023-06-19T08:22:50;3.30;;;2.30;;
4636;SDS011;2331;48.806;9.140;2023-06-19T08:25:16;4.90;;;2.47;;
4636;SDS011;2331;48.806;9.140;2023-06-19T08:27:43;3.77;;;2.40;;
4636;SDS011;2331;48.806;9.140;2023-06-19T08:30:10;5.07;;;2.40;;
4636;SDS011;2331;48.806;9.140;2023-06-19T08:32:39;3.70;;;2.43;;
4636;SDS011;2331;48.806;9.140;2023-06-19T08:35:06;3.60;;;2.60;;
4636;SDS011;2331;48.806;9.140;2023-06-19T08:37:33;4.60;;;2.80;;
4636;SDS011;2331;48.806;9.140;2023-06-19T08:40:00;3.30;;;2.33;;
4636;SDS011;2331;48.806;9.140;2023-06-19T08:42:29;3.20;;;2.17;;
4636;SDS011;2331;48.806;9.140;2023-06-19T08:44:55;6.63;;;2.43;;
4636;SDS011;2331;48.806;9.140;2023-06-19T08:47:22;4.70;;;2.90;;
4636;SDS011;2331;48.806;9.140;2023-06-19T08:49:56;3.83;;;2.30;;
4636;SDS011;2331;48.806;9.140;2023-06-19T08:52:24;3.40;;;2.53;;
4636;SDS011;2331;48.806;9.140;2023-06-19T08:54:50;3.70;;;2.53;;
4636;SDS011;2331;48.806;9.140;2023-06-19T08:57:17;8.13;;;2.87;;
4636;SDS011;2331;48.806;9.140;2023-06-19T08:59:47;6.73;;;2.87;;
4636;SDS011;2331;48.806;9.140;2023-06-19T09:02:15;4.80;;;3.10;;
4636;SDS011;2331;48.806;9.140;2023-06-19T09:04:42;5.03;;;2.90;;
4636;SDS011;2331;48.806;9.140;2023-06-19T09:07:11;5.63;;;2.87;;
4636;SDS011;2331;48.806;9.140;2023-06-19T09:09:43;4.97;;;2.90;;
4636;SDS011;2331;48.806;9.140;2023-06-19T09:12:14;3.70;;;2.70;;
4636;SDS011;2331;48.806;9.140;2023-06-19T09:14:43;4.63;;;2.97;;
4636;SDS011;2331;48.806;9.140;2023-06-19T09:17:11;5.10;;;3.10;;
4636;SDS011;2331;48.806;9.140;2023-06-19T09:19:46;4.93;;;2.70;;
4636;SDS011;2331;48.806;9.140;2023-06-19T09:22:16;4.67;;;3.00;;
4636;SDS011;2331;48.806;9.140;2023-06-19T09:24:52;4.10;;;2.70;;
4636;SDS011;2331;48.806;9.140;2023-06-19T09:27:19;3.70;;;2.80;;
4636;SDS011;2331;48.806;9.140;2023-06-19T09:29:47;4.07;;;2.77;;
4636;SDS011;2331;48.806;9.140;2023-06-19T09:32:15;4.37;;;2.90;;
4636;SDS011;2331;48.806;9.140;2023-06-19T09:34:42;4.50;;;2.90;;
4636;SDS011;2331;48.806;9.140;2023-06-19T09:37:09;5.20;;;3.13;;
4636;SDS011;2331;48.806;9.140;2023-06-19T09:39:36;4.87;;;3.20;;
4636;SDS011;2331;48.806;9.140;2023-06-19T09:42:07;4.53;;;3.07;;
4636;SDS011;2331;48.806;9.140;2023-06-19T09:44:36;4.93;;;3.40;;
4636;SDS011;2331;48.806;9.140;2023-06-19T09:47:07;5.73;;;3.40;;
4636;SDS011;2331;48.806;9.140;2023-06-19T09:49:44;5.00;;;2.93;;
4636;SDS011;2331;48.806;9.140;2023-06-19T09:52:16;4.90;;;2.97;;
4636;SDS011;2331;48.806;9.140;2023-06-19T09:54:44;6.17;;;3.37;;
4636;SDS011;2331;48.806;9.140;2023-06-19T09:57:13;5.10;;;3.60;;
4636;SDS011;2331;48.806;9.140;2023-06-19T09:59:40;4.23;;;3.27;;
4636;SDS011;2331;48.806;9.140;2023-06-19T10:02:08;9.97;;;3.67;;
4636;SDS011;2331;48.806;9.140;2023-06-19T10:04:42;4.27;;;3.33;;
4636;SDS011;2331;48.806;9.140;2023-06-19T10:07:17;4.30;;;3.03;;
4636;SDS011;2331;48.806;9.140;2023-06-19T10:09:55;5.07;;;2.90;;
4636;SDS011;2331;48.806;9.140;2023-06-19T10:12:36;5.10;;;3.10;;
4636;SDS011;2331;48.806;9.140;2023-06-19T10:15:11;5.30;;;3.50;;
4636;SDS011;2331;48.806;9.140;2023-06-19T10:17:42;7.13;;;3.70;;
4636;SDS011;2331;48.806;9.140;2023-06-19T10:20:24;5.57;;;3.70;;
4636;SDS011;2331;48.806;9.140;2023-06-19T10:22:57;6.60;;;3.30;;
4636;SDS011;2331;48.806;9.140;2023-06-19T10:25:27;14.87;;;8.97;;
4636;SDS011;2331;48.806;9.140;2023-06-19T10:27:57;15.57;;;6.77;;
4636;SDS011;2331;48.806;9.140;2023-06-19T10:30:25;12.60;;;8.20;;
4636;SDS011;2331;48.806;9.140;2023-06-19T10:32:52;15.30;;;8.97;;
4636;SDS011;2331;48.806;9.140;2023-06-19T10:35:19;8.17;;;3.50;;
4636;SDS011;2331;48.806;9.140;2023-06-19T10:37:47;6.90;;;4.30;;
4636;SDS011;2331;48.806;9.140;2023-06-19T10:40:15;7.27;;;4.77;;
4636;SDS011;2331;48.806;9.140;2023-06-19T10:42:42;5.97;;;3.80;;
4636;SDS011;2331;48.806;9.140;2023-06-19T10:45:11;7.87;;;3.70;;
4636;SDS011;2331;48.806;9.140;2023-06-19T10:47:40;4.90;;;3.03;;
4636;SDS011;2331;48.806;9.140;2023-06-19T10:50:11;6.30;;;3.40;;
4636;SDS011;2331;48.806;9.140;2023-06-19T10:52:42;6.30;;;3.20;;
4636;SDS011;2331;48.806;9.140;2023-06-19T10:55:09;6.87;;;3.50;;
4636;SDS011;2331;48.806;9.140;2023-06-19T10:57:37;5.50;;;3.90;;
4636;SDS011;2331;48.806;9.140;2023-06-19T11:00:05;4.50;;;3.03;;
4636;SDS011;2331;48.806;9.140;2023-06-19T11:02:39;4.70;;;3.13;;
4636;SDS011;2331;48.806;9.140;2023-06-19T11:05:08;6.33;;;3.50;;
4636;SDS011;2331;48.806;9.140;2023-06-19T11:07:35;5.43;;;3.70;;
4636;SDS011;2331;48.806;9.140;2023-06-19T11:10:03;5.93;;;3.70;;
4636;SDS011;2331;48.806;9.140;2023-06-19T11:12:31;5.50;;;3.60;;
4636;SDS011;2331;48.806;9.140;2023-06-19T11:14:58;4.97;;;3.57;;
4636;SDS011;2331;48.806;9.140;2023-06-19T11:17:25;4.50;;;2.60;;
4636;SDS011;2331;48.806;9.140;2023-06-19T11:19:56;4.60;;;3.30;;
4636;SDS011;2331;48.806;9.140;2023-06-19T11:22:34;5.00;;;3.27;;
4636;SDS011;2331;48.806;9.140;2023-06-19T11:25:02;4.63;;;3.30;;
4636;SDS011;2331;48.806;9.140;2023-06-19T11:27:30;4.73;;;3.20;;
4636;SDS011;2331;48.806;9.140;2023-06-19T11:29:57;4.83;;;3.67;;
4636;SDS011;2331;48.806;9.140;2023-06-19T11:32:30;5.03;;;3.20;;
4636;SDS011;2331;48.806;9.140;2023-06-19T11:35:03;5.23;;;3.73;;
4636;SDS011;2331;48.806;9.140;2023-06-19T11:37:32;4.60;;;3.30;;
4636;SDS011;2331;48.806;9.140;2023-06-19T11:39:59;5.70;;;3.67;;
4636;SDS011;2331;48.806;9.140;2023-06-19T11:42:28;4.60;;;3.20;;
4636;SDS011;2331;48.806;9.140;2023-06-19T11:44:55;4.60;;;3.33;;
4636;SDS011;2331;48.806;9.140;2023-06-19T11:47:22;4.60;;;3.07;;
4636;SDS011;2331;48.806;9.140;2023-06-19T11:49:50;5.90;;;4.10;;
4636;SDS011;2331;48.806;9.140;2023-06-19T11:52:18;8.60;;;3.33;;
4636;SDS011;2331;48.806;9.140;2023-06-19T11:54:45;4.77;;;3.43;;
4636;SDS011;2331;48.806;9.140;2023-06-19T11:57:12;5.40;;;3.80;;
4636;SDS011;2331;48.806;9.140;2023-06-19T11:59:39;4.33;;;3.20;;
4636;SDS011;2331;48.806;9.140;2023-06-19T12:02:05;6.13;;;3.20;;
4636;SDS011;2331;48.806;9.140;2023-06-19T12:04:32;5.90;;;4.20;;
4636;SDS011;2331;48.806;9.140;2023-06-19T12:06:59;5.03;;;3.20;;
4636;SDS011;2331;48.806;9.140;2023-06-19T12:09:28;5.50;;;3.33;;
4636;SDS011;2331;48.806;9.140;2023-06-19T12:11:55;5.90;;;3.70;;
4636;SDS011;2331;48.806;9.140;2023-06-19T12:14:21;5.10;;;3.47;;
4636;SDS011;2331;48.806;9.140;2023-06-19T12:16:49;5.43;;;3.30;;
4636;SDS011;2331;48.806;9.140;2023-06-19T12:19:16;7.60;;;3.63;;
4636;SDS011;2331;48.806;9.140;2023-06-19T12:21:43;7.57;;;3.77;;
4636;SDS011;2331;48.806;9.140;2023-06-19T12:24:10;4.70;;;3.47;;
4636;SDS011;2331;48.806;9.140;2023-06-19T12:26:38;5.20;;;3.77;;
4636;SDS011;2331;48.806;9.140;2023-06-19T12:29:05;6.03;;;3.73;;
4636;SDS011;2331;48.806;9.140;2023-06-19T12:31:33;8.00;;;3.63;;
4636;SDS011;2331;48.806;9.140;2023-06-19T12:34:00;4.83;;;3.43;;
4636;SDS011;2331;48.806;9.140;2023-06-19T12:36:28;4.40;;;3.37;;
4636;SDS011;2331;48.806;9.140;2023-06-19T12:38:56;5.70;;;3.80;;
4636;SDS011;2331;48.806;9.140;2023-06-19T12:41:23;4.93;;;3.77;;
4636;SDS011;2331;48.806;9.140;2023-06-19T12:43:51;6.63;;;3.70;;
4636;SDS011;2331;48.806;9.140;2023-06-19T12:46:18;5.00;;;3.50;;
4636;SDS011;2331;48.806;9.140;2023-06-19T12:48:46;5.80;;;3.83;;
4636;SDS011;2331;48.806;9.140;2023-06-19T12:51:15;5.50;;;3.30;;
4636;SDS011;2331;48.806;9.140;2023-06-19T12:53:42;6.13;;;3.70;;
4636;SDS011;2331;48.806;9.140;2023-06-19T12:56:09;5.77;;;3.30;;
4636;SDS011;2331;48.806;9.140;2023-06-19T12:58:36;5.73;;;3.03;;
4636;SDS011;2331;48.806;9.140;2023-06-19T13:01:04;4.77;;;3.27;;
4636;SDS011;2331;48.806;9.140;2023-06-19T13:03:31;6.60;;;3.90;;
4636;SDS011;2331;48.806;9.140;2023-06-19T13:05:58;6.00;;;3.70;;
4636;SDS011;2331;48.806;9.140;2023-06-19T13:08:24;6.47;;;3.70;;
4636;SDS011;2331;48.806;9.140;2023-06-19T13:10:51;5.17;;;3.47;;
4636;SDS011;2331;48.806;9.140;2023-06-19T13:13:18;8.40;;;3.90;;
4636;SDS011;2331;48.806;9.140;2023-06-19T13:15:45;4.07;;;3.13;;
4636;SDS011;2331;48.806;9.140;2023-06-19T13:18:13;6.37;;;3.93;;
4636;SDS011;2331;48.806;9.140;2023-06-19T13:20:39;5.60;;;3.80;;
4636;SDS011;2331;48.806;9.140;2023-06-19T13:23:06;4.83;;;3.40;;
4636;SDS011;2331;48.806;9.140;2023-06-19T13:25:33;5.10;;;3.40;;
4636;SDS011;2331;48.806;9.140;2023-06-19T13:28:00;5.77;;;3.47;;
4636;SDS011;2331;48.806;9.140;2023-06-19T13:30:27;5.07;;;3.77;;
4636;SDS011;2331;48.806;9.140;2023-06-19T13:32:54;6.10;;;3.07;;
4636;SDS011;2331;48.806;9.140;2023-06-19T13:35:22;4.80;;;3.30;;
4636;SDS011;2331;48.806;9.140;2023-06-19T13:37:49;5.97;;;3.83;;
4636;SDS011;2331;48.806;9.140;2023-06-19T13:40:15;5.10;;;3.70;;
4636;SDS011;2331;48.806;9.140;2023-06-19T13:42:42;5.10;;;3.80;;
4636;SDS011;2331;48.806;9.140;2023-06-19T13:45:09;5.90;;;3.60;;
4636;SDS011;2331;48.806;9.140;2023-06-19T13:47:36;5.87;;;3.53;;
4636;SDS011;2331;48.806;9.140;2023-06-19T13:50:03;6.40;;;3.60;;
4636;SDS011;2331;48.806;9.140;2023-06-19T13:52:32;6.27;;;4.10;;
4636;SDS011;2331;48.806;9.140;2023-06-19T13:54:59;4.70;;;3.50;;
4636;SDS011;2331;48.806;9.140;2023-06-19T13:57:27;4.60;;;3.37;;
4636;SDS011;2331;48.806;9.140;2023-06-19T13:59:54;4.20;;;3.20;;
4636;SDS011;2331;48.806;9.140;2023-06-19T14:02:21;5.70;;;3.60;;
4636;SDS011;2331;48.806;9.140;2023-06-19T14:04:48;5.93;;;3.80;;
4636;SDS011;2331;48.806;9.140;2023-06-19T14:07:14;6.17;;;3.70;;
4636;SDS011;2331;48.806;9.140;2023-06-19T14:09:44;5.80;;;3.87;;
4636;SDS011;2331;48.806;9.140;2023-06-19T14:12:10;5.80;;;3.43;;
4636;SDS011;2331;48.806;9.140;2023-06-19T14:14:37;5.27;;;3.60;;
4636;SDS011;2331;48.806;9.140;2023-06-19T14:17:04;4.97;;;3.40;;
4636;SDS011;2331;48.806;9.140;2023-06-19T14:19:31;5.50;;;3.73;;
4636;SDS011;2331;48.806;9.140;2023-06-19T14:21:58;4.60;;;3.60;;
4636;SDS011;2331;48.806;9.140;2023-06-19T14:24:25;4.07;;;3.13;;
4636;SDS011;2331;48.806;9.140;2023-06-19T14:26:53;5.60;;;3.47;;
4636;SDS011;2331;48.806;9.140;2023-06-19T14:29:19;5.53;;;3.50;;
4636;SDS011;2331;48.806;9.140;2023-06-19T14:31:46;4.63;;;3.20;;
4636;SDS011;2331;48.806;9.140;2023-06-19T14:34:13;5.40;;;3.93;;
4636;SDS011;2331;48.806;9.140;2023-06-19T14:36:40;5.60;;;3.57;;
4636;SDS011;2331;48.806;9.140;2023-06-19T14:39:07;5.70;;;4.00;;
4636;SDS011;2331;48.806;9.140;2023-06-19T14:41:34;6.00;;;3.53;;
4636;SDS011;2331;48.806;9.140;2023-06-19T14:44:02;7.70;;;4.00;;
4636;SDS011;2331;48.806;9.140;2023-06-19T14:46:29;5.00;;;3.40;;
4636;SDS011;2331;48.806;9.140;2023-06-19T14:48:57;5.00;;;3.60;;
4636;SDS011;2331;48.806;9.140;2023-06-19T14:51:26;5.50;;;3.93;;
4636;SDS011;2331;48.806;9.140;2023-06-19T14:53:52;7.30;;;3.53;;
4636;SDS011;2331;48.806;9.140;2023-06-19T14:56:19;7.27;;;3.53;;
4636;SDS011;2331;48.806;9.140;2023-06-19T14:58:46;4.60;;;3.20;;
4636;SDS011;2331;48.806;9.140;2023-06-19T15:01:14;5.10;;;3.50;;
4636;SDS011;2331;48.806;9.140;2023-06-19T15:03:41;4.73;;;3.00;;
4636;SDS011;2331;48.806;9.140;2023-06-19T15:06:08;5.90;;;3.87;;
4636;SDS011;2331;48.806;9.140;2023-06-19T15:08:35;4.50;;;3.43;;
4636;SDS011;2331;48.806;9.140;2023-06-19T15:11:03;8.60;;;4.07;;
4636;SDS011;2331;48.806;9.140;2023-06-19T15:13:30;5.50;;;3.70;;
4636;SDS011;2331;48.806;9.140;2023-06-19T15:15:57;5.13;;;3.63;;
4636;SDS011;2331;48.806;9.140;2023-06-19T15:18:26;6.03;;;3.23;;